sensor_id;sensor_type;location;lat;lon;timestamp;pressure;altitude;pressure_sealevel;temperature;humidity
21555;BME280;10938;44.794;-0.676;2022-07-05T00:01:04;101642.34;;;27.62;36.37
21555;BME280;10938;44.794;-0.676;2022-07-05T00:03:30;101647.03;;;27.57;36.73
21555;BME280;10938;44.794;-0.676;2022-07-05T00:05:56;101642.50;;;30.18;32.09
21555;BME280;10938;44.794;-0.676;2022-07-05T00:08:22;101646.31;;;28.15;35.28
21555;BME280;10938;44.794;-0.676;2022-07-05T00:10:47;101645.00;;;28.03;35.31
21555;BME280;10938;44.794;-0.676;2022-07-05T00:13:14;101645.84;;;27.85;35.92
21555;BME280;10938;44.794;-0.676;2022-07-05T00:15:39;101652.59;;;27.73;36.29
21555;BME280;10938;44.794;-0.676;2022-07-05T00:18:05;101650.53;;;28.00;35.41
21555;BME280;10938;44.794;-0.676;2022-07-05T00:20:31;101656.16;;;28.34;34.76
21555;BME280;10938;44.794;-0.676;2022-07-05T00:22:56;101652.91;;;28.07;35.61
21555;BME280;10938;44.794;-0.676;2022-07-05T00:25:21;101653.84;;;28.45;34.47
21555;BME280;10938;44.794;-0.676;2022-07-05T00:27:47;101653.59;;;28.31;35.13
21555;BME280;10938;44.794;-0.676;2022-07-05T00:30:13;101649.25;;;28.29;34.95
21555;BME280;10938;44.794;-0.676;2022-07-05T00:32:38;101650.72;;;28.16;35.53
21555;BME280;10938;44.794;-0.676;2022-07-05T00:35:06;101635.06;;;28.06;35.97
21555;BME280;10938;44.794;-0.676;2022-07-05T00:37:32;101634.72;;;28.90;34.40
21555;BME280;10938;44.794;-0.676;2022-07-05T00:39:57;101640.47;;;27.65;36.88
21555;BME280;10938;44.794;-0.676;2022-07-05T00:42:23;101638.88;;;28.21;35.34
21555;BME280;10938;44.794;-0.676;2022-07-05T00:44:48;101642.47;;;28.00;35.92
21555;BME280;10938;44.794;-0.676;2022-07-05T00:47:14;101633.34;;;29.53;32.90
21555;BME280;10938;44.794;-0.676;2022-07-05T00:49:41;101631.25;;;30.27;31.83
21555;BME280;10938;44.794;-0.676;2022-07-05T00:52:07;101635.56;;;29.45;33.88
21555;BME280;10938;44.794;-0.676;2022-07-05T00:54:35;101645.28;;;28.37;34.95
21555;BME280;10938;44.794;-0.676;2022-07-05T00:57:01;101637.81;;;28.25;34.83
21555;BME280;10938;44.794;-0.676;2022-07-05T00:59:28;101631.16;;;27.93;35.73
21555;BME280;10938;44.794;-0.676;2022-07-05T01:01:54;101629.50;;;27.91;35.85
21555;BME280;10938;44.794;-0.676;2022-07-05T01:04:20;101635.41;;;27.79;36.23
21555;BME280;10938;44.794;-0.676;2022-07-05T01:06:48;101625.59;;;27.78;36.12
21555;BME280;10938;44.794;-0.676;2022-07-05T01:09:15;101630.38;;;27.91;35.99
21555;BME280;10938;44.794;-0.676;2022-07-05T01:11:49;101636.88;;;28.06;35.44
21555;BME280;10938;44.794;-0.676;2022-07-05T01:14:20;101636.47;;;27.95;35.73
21555;BME280;10938;44.794;-0.676;2022-07-05T01:16:46;101625.13;;;27.88;35.81
21555;BME280;10938;44.794;-0.676;2022-07-05T01:19:12;101624.69;;;27.79;36.46
21555;BME280;10938;44.794;-0.676;2022-07-05T01:21:43;101624.13;;;27.71;36.73
21555;BME280;10938;44.794;-0.676;2022-07-05T01:24:14;101618.22;;;27.83;36.58
21555;BME280;10938;44.794;-0.676;2022-07-05T01:26:41;101621.84;;;27.61;37.26
21555;BME280;10938;44.794;-0.676;2022-07-05T01:29:08;101617.00;;;27.49;37.49
21555;BME280;10938;44.794;-0.676;2022-07-05T01:31:37;101614.53;;;27.23;38.33
21555;BME280;10938;44.794;-0.676;2022-07-05T01:34:03;101620.00;;;27.42;37.71
21555;BME280;10938;44.794;-0.676;2022-07-05T01:36:29;101616.03;;;27.52;37.25
21555;BME280;10938;44.794;-0.676;2022-07-05T01:38:54;101619.03;;;27.65;36.42
21555;BME280;10938;44.794;-0.676;2022-07-05T01:41:20;101622.38;;;27.49;36.87
21555;BME280;10938;44.794;-0.676;2022-07-05T01:43:45;101616.38;;;27.65;36.34
21555;BME280;10938;44.794;-0.676;2022-07-05T01:46:11;101632.44;;;27.85;36.03
21555;BME280;10938;44.794;-0.676;2022-07-05T01:48:39;101628.28;;;27.98;36.10
21555;BME280;10938;44.794;-0.676;2022-07-05T01:51:09;101625.72;;;28.35;35.64
21555;BME280;10938;44.794;-0.676;2022-07-05T01:53:36;101633.38;;;28.24;35.16
21555;BME280;10938;44.794;-0.676;2022-07-05T01:56:04;101633.78;;;27.75;36.28
21555;BME280;10938;44.794;-0.676;2022-07-05T01:58:30;101632.78;;;27.77;36.29
21555;BME280;10938;44.794;-0.676;2022-07-05T02:00:57;101631.38;;;27.69;37.17
21555;BME280;10938;44.794;-0.676;2022-07-05T02:03:23;101629.94;;;27.80;36.33
21555;BME280;10938;44.794;-0.676;2022-07-05T02:05:49;101623.84;;;28.17;36.38
21555;BME280;10938;44.794;-0.676;2022-07-05T02:08:16;101629.34;;;27.53;37.37
21555;BME280;10938;44.794;-0.676;2022-07-05T02:10:43;101622.59;;;27.43;38.12
21555;BME280;10938;44.794;-0.676;2022-07-05T02:13:09;101626.84;;;27.49;37.20
21555;BME280;10938;44.794;-0.676;2022-07-05T02:15:36;101628.47;;;27.53;38.07
21555;BME280;10938;44.794;-0.676;2022-07-05T02:18:03;101623.72;;;28.00;36.74
21555;BME280;10938;44.794;-0.676;2022-07-05T02:20:30;101626.41;;;28.20;36.33
21555;BME280;10938;44.794;-0.676;2022-07-05T02:22:56;101625.66;;;27.56;37.08
21555;BME280;10938;44.794;-0.676;2022-07-05T02:25:22;101632.16;;;27.29;38.10
21555;BME280;10938;44.794;-0.676;2022-07-05T02:27:47;101625.25;;;27.45;37.39
21555;BME280;10938;44.794;-0.676;2022-07-05T02:30:13;101637.38;;;27.94;36.18
21555;BME280;10938;44.794;-0.676;2022-07-05T02:32:39;101636.47;;;27.75;36.70
21555;BME280;10938;44.794;-0.676;2022-07-05T02:35:05;101634.28;;;27.62;37.27
21555;BME280;10938;44.794;-0.676;2022-07-05T02:37:32;101635.91;;;27.87;36.57
21555;BME280;10938;44.794;-0.676;2022-07-05T02:39:57;101633.31;;;27.65;37.01
21555;BME280;10938;44.794;-0.676;2022-07-05T02:42:23;101632.31;;;27.68;37.17
21555;BME280;10938;44.794;-0.676;2022-07-05T02:44:48;101626.25;;;27.62;37.42
21555;BME280;10938;44.794;-0.676;2022-07-05T02:47:14;101620.09;;;27.60;37.08
21555;BME280;10938;44.794;-0.676;2022-07-05T02:49:39;101624.13;;;27.91;36.54
21555;BME280;10938;44.794;-0.676;2022-07-05T02:52:04;101621.47;;;28.69;35.14
21555;BME280;10938;44.794;-0.676;2022-07-05T02:54:30;101624.53;;;28.41;35.52
21555;BME280;10938;44.794;-0.676;2022-07-05T02:56:55;101613.50;;;29.03;34.65
21555;BME280;10938;44.794;-0.676;2022-07-05T02:59:21;101618.75;;;27.91;36.88
21555;BME280;10938;44.794;-0.676;2022-07-05T03:01:46;101616.75;;;28.16;36.19
21555;BME280;10938;44.794;-0.676;2022-07-05T03:04:12;101615.25;;;27.89;36.76
21555;BME280;10938;44.794;-0.676;2022-07-05T03:06:37;101610.59;;;27.74;37.28
21555;BME280;10938;44.794;-0.676;2022-07-05T03:09:03;101618.03;;;27.67;37.28
21555;BME280;10938;44.794;-0.676;2022-07-05T03:11:29;101621.72;;;27.85;37.05
21555;BME280;10938;44.794;-0.676;2022-07-05T03:13:55;101622.25;;;27.73;37.19
21555;BME280;10938;44.794;-0.676;2022-07-05T03:16:21;101624.97;;;27.29;38.32
21555;BME280;10938;44.794;-0.676;2022-07-05T03:18:49;101616.94;;;27.29;37.84
21555;BME280;10938;44.794;-0.676;2022-07-05T03:21:14;101624.31;;;27.24;38.22
21555;BME280;10938;44.794;-0.676;2022-07-05T03:23:40;101626.16;;;27.02;38.34
21555;BME280;10938;44.794;-0.676;2022-07-05T03:26:05;101630.34;;;28.32;35.48
21555;BME280;10938;44.794;-0.676;2022-07-05T03:28:31;101630.22;;;26.89;38.70
21555;BME280;10938;44.794;-0.676;2022-07-05T03:30:57;101628.81;;;26.79;38.33
21555;BME280;10938;44.794;-0.676;2022-07-05T03:33:23;101633.03;;;26.62;39.26
21555;BME280;10938;44.794;-0.676;2022-07-05T03:35:48;101643.28;;;26.51;39.26
21555;BME280;10938;44.794;-0.676;2022-07-05T03:38:13;101640.72;;;26.48;39.25
21555;BME280;10938;44.794;-0.676;2022-07-05T03:40:39;101633.63;;;26.47;39.29
21555;BME280;10938;44.794;-0.676;2022-07-05T03:43:04;101635.94;;;26.33;39.37
21555;BME280;10938;44.794;-0.676;2022-07-05T03:45:30;101626.72;;;26.42;38.91
21555;BME280;10938;44.794;-0.676;2022-07-05T03:47:59;101632.47;;;26.31;39.37
21555;BME280;10938;44.794;-0.676;2022-07-05T03:50:25;101627.34;;;26.00;39.47
21555;BME280;10938;44.794;-0.676;2022-07-05T03:52:51;101614.59;;;25.84;40.13
21555;BME280;10938;44.794;-0.676;2022-07-05T03:55:16;101621.81;;;26.53;39.48
21555;BME280;10938;44.794;-0.676;2022-07-05T03:57:42;101627.13;;;26.54;39.16
21555;BME280;10938;44.794;-0.676;2022-07-05T04:00:08;101623.50;;;26.32;39.62
21555;BME280;10938;44.794;-0.676;2022-07-05T04:02:34;101627.56;;;25.94;39.37
21555;BME280;10938;44.794;-0.676;2022-07-05T04:05:00;101625.06;;;26.13;39.13
21555;BME280;10938;44.794;-0.676;2022-07-05T04:07:25;101624.38;;;26.08;39.14
21555;BME280;10938;44.794;-0.676;2022-07-05T04:09:52;101635.38;;;26.25;38.80
21555;BME280;10938;44.794;-0.676;2022-07-05T04:12:18;101635.34;;;25.76;39.65
21555;BME280;10938;44.794;-0.676;2022-07-05T04:14:43;101637.09;;;25.77;39.65
21555;BME280;10938;44.794;-0.676;2022-07-05T04:17:09;101633.97;;;25.89;39.91
21555;BME280;10938;44.794;-0.676;2022-07-05T04:19:34;101641.41;;;25.81;40.05
21555;BME280;10938;44.794;-0.676;2022-07-05T04:22:00;101642.78;;;25.68;39.88
21555;BME280;10938;44.794;-0.676;2022-07-05T04:24:25;101635.78;;;25.64;40.04
21555;BME280;10938;44.794;-0.676;2022-07-05T04:26:51;101632.19;;;25.65;39.70
21555;BME280;10938;44.794;-0.676;2022-07-05T04:29:16;101632.09;;;25.68;40.12
21555;BME280;10938;44.794;-0.676;2022-07-05T04:31:41;101632.50;;;25.55;39.78
21555;BME280;10938;44.794;-0.676;2022-07-05T04:34:07;101627.53;;;25.70;39.36
21555;BME280;10938;44.794;-0.676;2022-07-05T04:36:32;101636.50;;;25.93;39.30
21555;BME280;10938;44.794;-0.676;2022-07-05T04:38:58;101634.84;;;25.89;39.64
21555;BME280;10938;44.794;-0.676;2022-07-05T04:41:23;101634.75;;;26.42;38.97
21555;BME280;10938;44.794;-0.676;2022-07-05T04:43:49;101642.88;;;27.07;36.86
21555;BME280;10938;44.794;-0.676;2022-07-05T04:46:14;101627.88;;;26.58;38.00
21555;BME280;10938;44.794;-0.676;2022-07-05T04:48:40;101639.19;;;27.93;35.07
21555;BME280;10938;44.794;-0.676;2022-07-05T04:51:05;101644.09;;;28.24;34.73
21555;BME280;10938;44.794;-0.676;2022-07-05T04:53:31;101638.16;;;29.11;33.63
21555;BME280;10938;44.794;-0.676;2022-07-05T04:55:56;101646.81;;;31.63;30.07
21555;BME280;10938;44.794;-0.676;2022-07-05T04:58:22;101650.31;;;33.47;27.28
21555;BME280;10938;44.794;-0.676;2022-07-05T05:00:47;101654.06;;;33.32;27.28
21555;BME280;10938;44.794;-0.676;2022-07-05T05:03:12;101654.88;;;33.99;26.42
21555;BME280;10938;44.794;-0.676;2022-07-05T05:05:38;101657.16;;;35.76;25.28
21555;BME280;10938;44.794;-0.676;2022-07-05T05:08:03;101669.44;;;37.57;22.41
21555;BME280;10938;44.794;-0.676;2022-07-05T05:10:29;101673.19;;;37.98;22.00
21555;BME280;10938;44.794;-0.676;2022-07-05T05:12:55;101670.69;;;38.67;20.95
21555;BME280;10938;44.794;-0.676;2022-07-05T05:15:20;101675.84;;;39.00;20.20
21555;BME280;10938;44.794;-0.676;2022-07-05T05:17:46;101671.63;;;39.64;19.53
21555;BME280;10938;44.794;-0.676;2022-07-05T05:20:18;101670.31;;;39.88;19.63
21555;BME280;10938;44.794;-0.676;2022-07-05T05:22:45;101677.47;;;41.54;18.52
21555;BME280;10938;44.794;-0.676;2022-07-05T05:25:11;101678.75;;;41.42;19.43
21555;BME280;10938;44.794;-0.676;2022-07-05T05:27:44;101685.03;;;41.25;18.75
21555;BME280;10938;44.794;-0.676;2022-07-05T05:30:11;101677.78;;;42.30;18.03
21555;BME280;10938;44.794;-0.676;2022-07-05T05:32:37;101693.09;;;43.24;16.94
21555;BME280;10938;44.794;-0.676;2022-07-05T05:35:02;101690.69;;;44.50;15.98
21555;BME280;10938;44.794;-0.676;2022-07-05T05:37:28;101691.84;;;44.64;15.98
21555;BME280;10938;44.794;-0.676;2022-07-05T05:39:53;101696.91;;;45.53;14.83
21555;BME280;10938;44.794;-0.676;2022-07-05T05:42:19;101695.28;;;45.58;15.24
21555;BME280;10938;44.794;-0.676;2022-07-05T05:44:44;101703.69;;;46.54;14.39
21555;BME280;10938;44.794;-0.676;2022-07-05T05:47:10;101698.03;;;47.07;14.07
21555;BME280;10938;44.794;-0.676;2022-07-05T05:49:35;101700.44;;;46.36;13.96
21555;BME280;10938;44.794;-0.676;2022-07-05T05:52:00;101695.84;;;47.02;13.67
21555;BME280;10938;44.794;-0.676;2022-07-05T05:54:26;101691.03;;;47.25;13.37
21555;BME280;10938;44.794;-0.676;2022-07-05T05:56:51;101690.09;;;48.03;12.91
21555;BME280;10938;44.794;-0.676;2022-07-05T05:59:17;101684.59;;;48.37;12.93
21555;BME280;10938;44.794;-0.676;2022-07-05T06:01:43;101689.59;;;47.72;12.61
21555;BME280;10938;44.794;-0.676;2022-07-05T06:04:08;101693.19;;;48.21;12.50
21555;BME280;10938;44.794;-0.676;2022-07-05T06:06:33;101692.03;;;48.09;12.60
21555;BME280;10938;44.794;-0.676;2022-07-05T06:08:59;101693.34;;;48.82;12.17
21555;BME280;10938;44.794;-0.676;2022-07-05T06:11:24;101705.91;;;50.57;10.90
21555;BME280;10938;44.794;-0.676;2022-07-05T06:13:49;101706.81;;;51.39;10.10
21555;BME280;10938;44.794;-0.676;2022-07-05T06:16:15;101700.91;;;51.23;9.69
21555;BME280;10938;44.794;-0.676;2022-07-05T06:18:41;101708.13;;;51.93;9.67
21555;BME280;10938;44.794;-0.676;2022-07-05T06:21:06;101704.41;;;50.61;9.91
21555;BME280;10938;44.794;-0.676;2022-07-05T06:23:31;101702.22;;;51.83;9.97
21555;BME280;10938;44.794;-0.676;2022-07-05T06:25:57;101707.06;;;52.55;9.01
21555;BME280;10938;44.794;-0.676;2022-07-05T06:28:22;101707.41;;;52.22;9.33
21555;BME280;10938;44.794;-0.676;2022-07-05T06:30:48;101709.97;;;53.56;8.67
21555;BME280;10938;44.794;-0.676;2022-07-05T06:33:13;101695.47;;;51.03;9.45
21555;BME280;10938;44.794;-0.676;2022-07-05T06:35:39;101690.28;;;51.13;9.86
21555;BME280;10938;44.794;-0.676;2022-07-05T06:38:06;101696.16;;;51.36;9.35
21555;BME280;10938;44.794;-0.676;2022-07-05T06:40:33;101699.09;;;51.73;8.93
21555;BME280;10938;44.794;-0.676;2022-07-05T06:43:01;101699.69;;;52.24;8.80
21555;BME280;10938;44.794;-0.676;2022-07-05T06:45:27;101693.19;;;52.85;8.60
21555;BME280;10938;44.794;-0.676;2022-07-05T06:50:27;101708.38;;;55.78;7.31
21555;BME280;10938;44.794;-0.676;2022-07-05T06:52:52;101703.53;;;54.72;7.37
21555;BME280;10938;44.794;-0.676;2022-07-05T06:55:18;101711.69;;;54.73;7.41
21555;BME280;10938;44.794;-0.676;2022-07-05T06:57:43;101724.63;;;56.48;6.44
21555;BME280;10938;44.794;-0.676;2022-07-05T07:00:11;101716.03;;;54.93;7.27
21555;BME280;10938;44.794;-0.676;2022-07-05T07:02:36;101727.06;;;57.95;5.70
21555;BME280;10938;44.794;-0.676;2022-07-05T07:05:02;101716.53;;;55.96;6.33
21555;BME280;10938;44.794;-0.676;2022-07-05T07:07:27;101720.31;;;56.62;6.42
21555;BME280;10938;44.794;-0.676;2022-07-05T07:10:14;101738.94;;;57.16;6.12
21555;BME280;10938;44.794;-0.676;2022-07-05T07:12:39;101725.69;;;56.25;6.58
21555;BME280;10938;44.794;-0.676;2022-07-05T07:15:05;101725.22;;;53.95;7.55
21555;BME280;10938;44.794;-0.676;2022-07-05T07:17:30;101721.31;;;54.66;7.21
21555;BME280;10938;44.794;-0.676;2022-07-05T07:19:56;101716.38;;;55.86;6.46
21555;BME280;10938;44.794;-0.676;2022-07-05T07:22:21;101736.19;;;57.75;5.88
21555;BME280;10938;44.794;-0.676;2022-07-05T07:24:47;101727.50;;;57.50;5.90
21555;BME280;10938;44.794;-0.676;2022-07-05T07:27:12;101736.84;;;57.28;6.05
21555;BME280;10938;44.794;-0.676;2022-07-05T07:29:39;101735.91;;;56.14;6.55
21555;BME280;10938;44.794;-0.676;2022-07-05T07:32:06;101731.47;;;56.18;6.28
21555;BME280;10938;44.794;-0.676;2022-07-05T07:34:33;101731.38;;;55.63;6.29
21555;BME280;10938;44.794;-0.676;2022-07-05T07:36:58;101735.72;;;56.04;6.26
21555;BME280;10938;44.794;-0.676;2022-07-05T07:39:25;101737.59;;;55.82;6.47
21555;BME280;10938;44.794;-0.676;2022-07-05T07:41:51;101734.13;;;55.92;6.55
21555;BME280;10938;44.794;-0.676;2022-07-05T07:44:17;101741.56;;;57.81;5.42
21555;BME280;10938;44.794;-0.676;2022-07-05T07:46:43;101752.47;;;58.57;5.29
21555;BME280;10938;44.794;-0.676;2022-07-05T07:49:09;101744.94;;;58.20;4.88
21555;BME280;10938;44.794;-0.676;2022-07-05T07:51:35;101732.25;;;56.35;5.64
21555;BME280;10938;44.794;-0.676;2022-07-05T07:54:01;101722.31;;;54.02;6.86
21555;BME280;10938;44.794;-0.676;2022-07-05T07:56:26;101721.97;;;54.21;6.96
21555;BME280;10938;44.794;-0.676;2022-07-05T07:58:52;101726.97;;;56.39;6.13
21555;BME280;10938;44.794;-0.676;2022-07-05T08:01:18;101729.50;;;57.27;5.36
21555;BME280;10938;44.794;-0.676;2022-07-05T08:03:43;101740.25;;;56.65;5.78
21555;BME280;10938;44.794;-0.676;2022-07-05T08:06:10;101709.28;;;54.54;6.66
21555;BME280;10938;44.794;-0.676;2022-07-05T08:08:38;101724.69;;;55.36;6.57
21555;BME280;10938;44.794;-0.676;2022-07-05T08:11:04;101731.69;;;58.58;4.52
21555;BME280;10938;44.794;-0.676;2022-07-05T08:13:30;101733.47;;;60.61;3.56
21555;BME280;10938;44.794;-0.676;2022-07-05T08:15:57;101744.34;;;61.37;3.85
21555;BME280;10938;44.794;-0.676;2022-07-05T08:18:22;101743.50;;;60.87;4.01
21555;BME280;10938;44.794;-0.676;2022-07-05T08:21:07;101735.88;;;59.93;4.31
21555;BME280;10938;44.794;-0.676;2022-07-05T08:23:51;101741.13;;;61.48;3.43
21555;BME280;10938;44.794;-0.676;2022-07-05T08:26:17;101738.50;;;61.57;3.27
21555;BME280;10938;44.794;-0.676;2022-07-05T08:28:42;101740.63;;;60.97;3.81
21555;BME280;10938;44.794;-0.676;2022-07-05T08:31:08;101742.50;;;62.13;3.10
21555;BME280;10938;44.794;-0.676;2022-07-05T08:33:33;101733.38;;;62.22;3.12
21555;BME280;10938;44.794;-0.676;2022-07-05T08:35:59;101739.66;;;63.03;3.25
21555;BME280;10938;44.794;-0.676;2022-07-05T08:38:24;101738.75;;;61.94;2.71
21555;BME280;10938;44.794;-0.676;2022-07-05T08:40:51;101731.50;;;61.15;3.40
21555;BME280;10938;44.794;-0.676;2022-07-05T08:43:17;101732.41;;;60.42;3.65
21555;BME280;10938;44.794;-0.676;2022-07-05T08:45:44;101733.78;;;60.44;3.82
21555;BME280;10938;44.794;-0.676;2022-07-05T08:48:10;101716.72;;;58.52;4.79
21555;BME280;10938;44.794;-0.676;2022-07-05T08:50:43;101716.06;;;58.97;4.16
21555;BME280;10938;44.794;-0.676;2022-07-05T08:53:09;101733.88;;;61.37;4.02
21555;BME280;10938;44.794;-0.676;2022-07-05T08:55:35;101738.16;;;62.68;3.07
21555;BME280;10938;44.794;-0.676;2022-07-05T08:58:01;101731.19;;;61.17;3.20
21555;BME280;10938;44.794;-0.676;2022-07-05T09:00:27;101729.03;;;60.35;3.38
21555;BME280;10938;44.794;-0.676;2022-07-05T09:02:53;101749.03;;;62.61;2.92
21555;BME280;10938;44.794;-0.676;2022-07-05T09:05:19;101745.84;;;63.43;2.73
21555;BME280;10938;44.794;-0.676;2022-07-05T09:07:56;101744.69;;;62.69;2.38
21555;BME280;10938;44.794;-0.676;2022-07-05T09:10:25;101732.69;;;60.99;3.19
21555;BME280;10938;44.794;-0.676;2022-07-05T09:12:51;101724.41;;;57.78;4.59
21555;BME280;10938;44.794;-0.676;2022-07-05T09:15:16;101725.19;;;58.05;4.14
21555;BME280;10938;44.794;-0.676;2022-07-05T09:17:45;101732.09;;;61.12;3.28
21555;BME280;10938;44.794;-0.676;2022-07-05T09:20:13;101741.59;;;61.21;2.86
21555;BME280;10938;44.794;-0.676;2022-07-05T09:25:16;101727.66;;;60.22;3.87
21555;BME280;10938;44.794;-0.676;2022-07-05T09:27:47;101719.72;;;58.36;4.26
21555;BME280;10938;44.794;-0.676;2022-07-05T09:30:23;101732.28;;;58.65;4.62
21555;BME280;10938;44.794;-0.676;2022-07-05T09:33:02;101736.03;;;60.47;3.29
21555;BME280;10938;44.794;-0.676;2022-07-05T09:35:32;101734.59;;;60.60;3.15
21555;BME280;10938;44.794;-0.676;2022-07-05T09:37:58;101731.31;;;60.28;3.70
21555;BME280;10938;44.794;-0.676;2022-07-05T09:40:24;101741.34;;;62.14;2.91
21555;BME280;10938;44.794;-0.676;2022-07-05T09:42:49;101734.72;;;61.38;3.13
21555;BME280;10938;44.794;-0.676;2022-07-05T09:45:24;101734.72;;;59.28;3.84
21555;BME280;10938;44.794;-0.676;2022-07-05T09:47:50;101724.22;;;58.32;4.67
21555;BME280;10938;44.794;-0.676;2022-07-05T09:50:32;101732.47;;;59.66;4.15
21555;BME280;10938;44.794;-0.676;2022-07-05T09:52:58;101726.09;;;58.73;4.11
21555;BME280;10938;44.794;-0.676;2022-07-05T09:55:23;101729.13;;;59.39;4.23
21555;BME280;10938;44.794;-0.676;2022-07-05T09:57:49;101729.06;;;60.19;3.81
21555;BME280;10938;44.794;-0.676;2022-07-05T10:00:21;101723.16;;;59.30;3.75
21555;BME280;10938;44.794;-0.676;2022-07-05T10:02:52;101725.47;;;58.56;4.80
21555;BME280;10938;44.794;-0.676;2022-07-05T10:05:23;101718.31;;;58.85;4.53
21555;BME280;10938;44.794;-0.676;2022-07-05T10:07:51;101727.00;;;57.58;4.71
21555;BME280;10938;44.794;-0.676;2022-07-05T10:10:22;101710.66;;;56.53;5.46
21555;BME280;10938;44.794;-0.676;2022-07-05T10:12:49;101706.31;;;52.66;7.04
21555;BME280;10938;44.794;-0.676;2022-07-05T10:15:20;101700.53;;;46.28;10.98
21555;BME280;10938;44.794;-0.676;2022-07-05T10:20:44;101690.41;;;44.05;12.57
21555;BME280;10938;44.794;-0.676;2022-07-05T10:23:15;101690.31;;;42.66;14.46
21555;BME280;10938;44.794;-0.676;2022-07-05T10:25:43;101695.47;;;41.92;14.56
21555;BME280;10938;44.794;-0.676;2022-07-05T10:28:09;101694.56;;;40.76;15.53
21555;BME280;10938;44.794;-0.676;2022-07-05T10:30:36;101687.16;;;40.49;15.64
21555;BME280;10938;44.794;-0.676;2022-07-05T10:33:03;101689.78;;;41.85;15.05
21555;BME280;10938;44.794;-0.676;2022-07-05T10:35:29;101687.03;;;39.46;16.59
21555;BME280;10938;44.794;-0.676;2022-07-05T10:37:55;101682.06;;;39.11;16.99
21555;BME280;10938;44.794;-0.676;2022-07-05T10:40:22;101688.09;;;39.15;17.01
21555;BME280;10938;44.794;-0.676;2022-07-05T10:42:52;101684.66;;;39.13;17.12
21555;BME280;10938;44.794;-0.676;2022-07-05T10:45:31;101686.59;;;39.80;16.96
21555;BME280;10938;44.794;-0.676;2022-07-05T10:50:50;101688.75;;;38.58;17.75
21555;BME280;10938;44.794;-0.676;2022-07-05T10:53:17;101684.75;;;38.11;18.49
21555;BME280;10938;44.794;-0.676;2022-07-05T10:56:12;101688.50;;;38.71;17.74
21555;BME280;10938;44.794;-0.676;2022-07-05T11:06:04;101676.03;;;37.44;19.88
21555;BME280;10938;44.794;-0.676;2022-07-05T11:11:44;101683.47;;;37.53;19.41
21555;BME280;10938;44.794;-0.676;2022-07-05T11:16:45;101677.19;;;37.30;19.27
21555;BME280;10938;44.794;-0.676;2022-07-05T11:19:16;101687.00;;;37.10;20.33
21555;BME280;10938;44.794;-0.676;2022-07-05T11:24:29;101681.81;;;36.30;20.35
21555;BME280;10938;44.794;-0.676;2022-07-05T11:26:57;101678.63;;;35.90;20.77
21555;BME280;10938;44.794;-0.676;2022-07-05T11:29:51;101685.44;;;36.86;19.24
21555;BME280;10938;44.794;-0.676;2022-07-05T11:35:19;101680.84;;;36.31;20.42
21555;BME280;10938;44.794;-0.676;2022-07-05T11:38:06;101680.22;;;36.16;19.58
21555;BME280;10938;44.794;-0.676;2022-07-05T11:40:38;101683.13;;;35.67;19.68
21555;BME280;10938;44.794;-0.676;2022-07-05T11:43:04;101680.97;;;36.29;19.60
21555;BME280;10938;44.794;-0.676;2022-07-05T11:45:32;101677.75;;;35.78;20.44
21555;BME280;10938;44.794;-0.676;2022-07-05T11:47:58;101683.22;;;35.89;19.42
21555;BME280;10938;44.794;-0.676;2022-07-05T11:50:34;101687.53;;;35.92;19.17
21555;BME280;10938;44.794;-0.676;2022-07-05T11:53:02;101679.22;;;36.17;19.00
21555;BME280;10938;44.794;-0.676;2022-07-05T11:55:29;101680.63;;;36.78;18.37
21555;BME280;10938;44.794;-0.676;2022-07-05T11:57:56;101673.69;;;36.63;18.68
21555;BME280;10938;44.794;-0.676;2022-07-05T12:00:31;101677.03;;;36.44;19.79
21555;BME280;10938;44.794;-0.676;2022-07-05T12:02:57;101679.25;;;36.28;19.76
21555;BME280;10938;44.794;-0.676;2022-07-05T12:05:23;101676.78;;;35.32;20.81
21555;BME280;10938;44.794;-0.676;2022-07-05T12:07:52;101673.19;;;36.36;19.47
21555;BME280;10938;44.794;-0.676;2022-07-05T12:10:19;101670.72;;;37.42;18.80
21555;BME280;10938;44.794;-0.676;2022-07-05T12:13:07;101664.25;;;37.43;18.08
21555;BME280;10938;44.794;-0.676;2022-07-05T12:15:34;101655.28;;;36.22;19.07
21555;BME280;10938;44.794;-0.676;2022-07-05T12:18:01;101671.59;;;36.67;19.01
21555;BME280;10938;44.794;-0.676;2022-07-05T12:20:32;101667.34;;;37.18;17.50
21555;BME280;10938;44.794;-0.676;2022-07-05T12:22:58;101661.72;;;37.94;17.81
21555;BME280;10938;44.794;-0.676;2022-07-05T12:25:25;101665.25;;;37.53;18.59
21555;BME280;10938;44.794;-0.676;2022-07-05T12:27:53;101669.84;;;35.51;20.62
21555;BME280;10938;44.794;-0.676;2022-07-05T12:30:19;101662.53;;;35.64;20.86
21555;BME280;10938;44.794;-0.676;2022-07-05T12:33:07;101667.75;;;37.02;19.19
21555;BME280;10938;44.794;-0.676;2022-07-05T12:35:39;101659.03;;;36.66;18.57
21555;BME280;10938;44.794;-0.676;2022-07-05T12:40:31;101663.31;;;35.54;21.09
21555;BME280;10938;44.794;-0.676;2022-07-05T12:43:05;101664.81;;;35.82;20.28
21555;BME280;10938;44.794;-0.676;2022-07-05T12:45:31;101667.38;;;35.25;21.09
21555;BME280;10938;44.794;-0.676;2022-07-05T12:47:59;101652.88;;;35.60;19.82
21555;BME280;10938;44.794;-0.676;2022-07-05T12:50:27;101655.13;;;35.67;20.48
21555;BME280;10938;44.794;-0.676;2022-07-05T12:53:04;101660.72;;;36.22;20.14
21555;BME280;10938;44.794;-0.676;2022-07-05T12:55:50;101659.47;;;35.45;20.14
21555;BME280;10938;44.794;-0.676;2022-07-05T12:58:47;101652.78;;;35.38;21.53
21555;BME280;10938;44.794;-0.676;2022-07-05T13:04:18;101653.44;;;36.78;20.21
21555;BME280;10938;44.794;-0.676;2022-07-05T13:06:56;101656.75;;;36.15;21.13
21555;BME280;10938;44.794;-0.676;2022-07-05T13:09:29;101658.50;;;36.38;20.07
21555;BME280;10938;44.794;-0.676;2022-07-05T13:12:13;101662.81;;;35.73;20.99
21555;BME280;10938;44.794;-0.676;2022-07-05T13:14:45;101654.19;;;35.90;20.56
21555;BME280;10938;44.794;-0.676;2022-07-05T13:17:12;101661.34;;;36.81;19.97
21555;BME280;10938;44.794;-0.676;2022-07-05T13:19:39;101659.47;;;36.37;20.01